PGUMPTKK

Guest
Details From PGUM - Guam Intl
To PTKK - Chukk Intl
Flight Number -
Tags decoded
Created
Modified
Stats Distance 551 nm / 1,021 km
Max Altitude 0 ft / 0 m
Waypoints 3
Social Downloads 8
Likes 0
Share

Download

Looking for another format? Having issues loading an existing format? Contact us
Advertisement - Login to hide

Notes

Requested: PGUM GUNSS R584 PTKK Unmatched points: R584

Route

PGUM GUNSS PTKK

ID Type Via Altitude (ft/m) Position (lat/lon) Dist (leg/tot) Name
O PGUM APT - 0 / 0 13.48387 / 144.79717 - / 0 nm Guam Intl
GUNSS FIX - 0 / 0 10.73167 / 148.06500 253 / 253 nm
O PTKK APT - 0 / 0 7.46189 / 151.84302 297 / 551 nm Chukk Intl

Altitude Profile

Advertisement - Login to hide

Weather


0- 5 10 15 20 25 30 35+ Temperature / °C

Clouds and Precipitation
Forecast for 2021-03-22 12:00 UTC. Updated 2 months ago

Ground ~20,000 ft ~40,000 ft Winds

PGUM

Details ICAO PGUM (GUM)
Name Guam Intl
Region USA (Guam, Northern Mariana Islands)
Timezone Pacific/Guam (UTC+10.0)
Stats Elevation 305 ft / 93 m (AMSL)
Location 13.484000° 144.797000°
Runways 2
Magnetic Variation 0.514° E

METAR

PGUM 140054Z 08015G23KT 10SM SCT025 31/23 A2989 RMK AO2 SLP113 T03060228

Decode

TAF

TAF PGUM 132330Z 1400/1506 08015G25KT P6SM VCSH SCT020 SCT040 FM140900 08012KT P6SM FEW025 SCT050

Decode

Departure Runways

ID Width Length Bearing (true/mag) Surface Threshold Overrun Markings Lighting
06L 150 ft / 46 m 12,020 ft / 3,664 m 64.81° / 64.30° ASPHALT 1,014 ft / 309 m 397 ft / 121 m PREC-APP EDGE THRESHOLD MALSR
06R 151 ft / 46 m 10,019 ft / 3,054 m 64.83° / 64.32° ASPHALT 0 ft / 0 m 400 ft / 122 m PREC-APP EDGE THRESHOLD MALSR
24L 151 ft / 46 m 10,019 ft / 3,054 m 244.84° / 244.32° ASPHALT 1,010 ft / 308 m 394 ft / 120 m PREC-APP EDGE THRESHOLD
24R 150 ft / 46 m 12,020 ft / 3,664 m 244.82° / 244.30° ASPHALT 0 ft / 0 m 397 ft / 121 m PREC-APP EDGE THRESHOLD

PTKK

Details ICAO PTKK (TKK)
Name Chuuk Airport
Region Federated States of Micronesia, Palau
Timezone Pacific/Chuuk (UTC+10.0)
Stats Elevation 11 ft / 3 m (AMSL)
Location 7.461910° 151.843000°
Runways 1
Magnetic Variation 3.918° E

METAR

PTKK 140053Z 11007G21KT 15SM FEW014 SCT120 BKN280 30/25 A2977 RMK SLP084 T03040250

Decode

TAF

TAF PTKK 132330Z 1400/1424 11011G20KT P6SM VCSH SCT016 BKN140 WS020/08030KT FM140200 11013KT P6SM VCSH SCT016 BKN140

Decode

Destination Runways

ID Width Length Bearing (true/mag) Surface Threshold Overrun Markings Lighting
04 151 ft / 46 m 6,019 ft / 1,835 m 45.83° / 41.91° ASPHALT 0 ft / 0 m 190 ft / 58 m PREC-APP EDGE THRESHOLD REIL-OMNI
22 151 ft / 46 m 6,019 ft / 1,835 m 225.83° / 221.91° ASPHALT 0 ft / 0 m 184 ft / 56 m PREC-APP EDGE THRESHOLD REIL-OMNI

Popular Alternatives